sensor_id;sensor_type;location;lat;lon;timestamp;pressure;altitude;pressure_sealevel;temperature;humidity
42859;BME280;28505;56.970;40.998;2022-10-30T00:05:02;97972.25;;;9.23;nan
42859;BME280;28505;56.970;40.998;2022-10-30T00:10:24;97951.72;;;9.19;nan
42859;BME280;28505;56.970;40.998;2022-10-30T00:15:51;97949.19;;;9.22;nan
42859;BME280;28505;56.970;40.998;2022-10-30T00:21:14;97956.56;;;9.25;nan
42859;BME280;28505;56.970;40.998;2022-10-30T00:26:37;97940.44;;;9.25;nan
42859;BME280;28505;56.970;40.998;2022-10-30T00:31:59;97922.63;;;9.21;nan
42859;BME280;28505;56.970;40.998;2022-10-30T00:37:21;97912.22;;;9.31;nan
42859;BME280;28505;56.970;40.998;2022-10-30T00:42:43;97911.13;;;9.32;nan
42859;BME280;28505;56.970;40.998;2022-10-30T00:48:08;97899.00;;;9.26;nan
42859;BME280;28505;56.970;40.998;2022-10-30T00:53:34;97877.94;;;9.28;nan
42859;BME280;28505;56.970;40.998;2022-10-30T00:59:03;97872.13;;;9.26;nan
42859;BME280;28505;56.970;40.998;2022-10-30T01:04:30;97858.22;;;9.24;nan
42859;BME280;28505;56.970;40.998;2022-10-30T01:09:54;97856.88;;;9.30;nan
42859;BME280;28505;56.970;40.998;2022-10-30T01:15:20;97849.94;;;9.29;nan
42859;BME280;28505;56.970;40.998;2022-10-30T01:21:00;97845.66;;;9.28;nan
42859;BME280;28505;56.970;40.998;2022-10-30T01:38:09;97811.50;;;9.29;nan
42859;BME280;28505;56.970;40.998;2022-10-30T01:43:35;97803.00;;;9.27;nan
42859;BME280;28505;56.970;40.998;2022-10-30T02:00:53;97796.47;;;9.40;nan
42859;BME280;28505;56.970;40.998;2022-10-30T02:06:17;97790.31;;;9.40;nan
42859;BME280;28505;56.970;40.998;2022-10-30T02:11:41;97771.72;;;9.34;nan
42859;BME280;28505;56.970;40.998;2022-10-30T02:17:05;97764.09;;;9.36;nan
42859;BME280;28505;56.970;40.998;2022-10-30T02:22:28;97744.16;;;9.37;nan
42859;BME280;28505;56.970;40.998;2022-10-30T02:27:51;97737.41;;;9.44;nan
42859;BME280;28505;56.970;40.998;2022-10-30T02:33:13;97735.75;;;9.39;nan
42859;BME280;28505;56.970;40.998;2022-10-30T02:38:35;97740.56;;;9.46;nan
42859;BME280;28505;56.970;40.998;2022-10-30T02:43:58;97729.34;;;9.44;nan
42859;BME280;28505;56.970;40.998;2022-10-30T02:49:20;97723.75;;;9.49;nan
42859;BME280;28505;56.970;40.998;2022-10-30T02:54:42;97699.88;;;9.47;nan
42859;BME280;28505;56.970;40.998;2022-10-30T03:00:05;97703.22;;;9.56;nan
42859;BME280;28505;56.970;40.998;2022-10-30T03:05:29;97679.03;;;9.44;nan
42859;BME280;28505;56.970;40.998;2022-10-30T03:11:19;97690.13;;;9.55;nan
42859;BME280;28505;56.970;40.998;2022-10-30T03:16:40;97677.09;;;9.57;nan
42859;BME280;28505;56.970;40.998;2022-10-30T03:22:02;97663.22;;;9.55;nan
42859;BME280;28505;56.970;40.998;2022-10-30T03:27:24;97664.97;;;9.63;nan
42859;BME280;28505;56.970;40.998;2022-10-30T03:32:46;97648.59;;;9.68;nan
42859;BME280;28505;56.970;40.998;2022-10-30T03:38:12;97639.47;;;9.73;nan
42859;BME280;28505;56.970;40.998;2022-10-30T03:43:35;97632.09;;;9.70;nan
42859;BME280;28505;56.970;40.998;2022-10-30T03:48:58;97632.97;;;9.74;nan
42859;BME280;28505;56.970;40.998;2022-10-30T03:54:20;97625.25;;;9.72;nan
42859;BME280;28505;56.970;40.998;2022-10-30T03:59:42;97631.50;;;9.76;nan
42859;BME280;28505;56.970;40.998;2022-10-30T04:05:24;97623.97;;;9.82;nan
42859;BME280;28505;56.970;40.998;2022-10-30T04:10:49;97605.81;;;9.79;nan
42859;BME280;28505;56.970;40.998;2022-10-30T04:16:11;97609.47;;;9.87;nan
42859;BME280;28505;56.970;40.998;2022-10-30T04:21:35;97607.03;;;9.81;nan
42859;BME280;28505;56.970;40.998;2022-10-30T04:26:57;97614.84;;;9.87;nan
42859;BME280;28505;56.970;40.998;2022-10-30T04:32:19;97601.66;;;9.81;nan
42859;BME280;28505;56.970;40.998;2022-10-30T04:37:42;97593.59;;;9.81;nan
42859;BME280;28505;56.970;40.998;2022-10-30T04:43:07;97593.31;;;9.87;nan
42859;BME280;28505;56.970;40.998;2022-10-30T04:48:31;97584.63;;;9.77;nan
42859;BME280;28505;56.970;40.998;2022-10-30T04:53:55;97584.75;;;9.81;nan
42859;BME280;28505;56.970;40.998;2022-10-30T04:59:19;97578.22;;;9.82;nan
42859;BME280;28505;56.970;40.998;2022-10-30T05:04:45;97570.94;;;9.82;nan
42859;BME280;28505;56.970;40.998;2022-10-30T05:10:11;97575.63;;;9.85;nan
42859;BME280;28505;56.970;40.998;2022-10-30T05:15:35;97569.38;;;9.81;nan
42859;BME280;28505;56.970;40.998;2022-10-30T05:20:56;97573.16;;;9.80;nan
42859;BME280;28505;56.970;40.998;2022-10-30T05:26:19;97592.44;;;9.82;nan
42859;BME280;28505;56.970;40.998;2022-10-30T05:31:41;97579.75;;;9.67;nan
42859;BME280;28505;56.970;40.998;2022-10-30T05:37:09;97587.03;;;9.67;nan
42859;BME280;28505;56.970;40.998;2022-10-30T05:42:31;97580.84;;;9.50;nan
42859;BME280;28505;56.970;40.998;2022-10-30T05:48:04;97582.53;;;9.55;nan
42859;BME280;28505;56.970;40.998;2022-10-30T05:53:34;97570.09;;;9.50;nan
42859;BME280;28505;56.970;40.998;2022-10-30T05:58:56;97592.97;;;9.44;nan
42859;BME280;28505;56.970;40.998;2022-10-30T06:04:19;97580.28;;;9.29;nan
42859;BME280;28505;56.970;40.998;2022-10-30T06:09:41;97591.72;;;9.26;nan
42859;BME280;28505;56.970;40.998;2022-10-30T06:15:16;97584.59;;;9.18;nan
42859;BME280;28505;56.970;40.998;2022-10-30T06:20:38;97570.81;;;9.19;nan
42859;BME280;28505;56.970;40.998;2022-10-30T06:26:18;97564.75;;;9.22;nan
42859;BME280;28505;56.970;40.998;2022-10-30T06:31:44;97576.81;;;9.28;nan
42859;BME280;28505;56.970;40.998;2022-10-30T06:37:07;97566.69;;;9.37;nan
42859;BME280;28505;56.970;40.998;2022-10-30T06:42:29;97566.00;;;9.41;nan
42859;BME280;28505;56.970;40.998;2022-10-30T06:48:14;97553.50;;;9.32;nan
42859;BME280;28505;56.970;40.998;2022-10-30T06:53:42;97557.97;;;9.28;nan
42859;BME280;28505;56.970;40.998;2022-10-30T06:59:30;97554.69;;;9.19;nan
42859;BME280;28505;56.970;40.998;2022-10-30T07:05:13;97547.34;;;9.04;nan
42859;BME280;28505;56.970;40.998;2022-10-30T07:10:35;97557.69;;;8.89;nan
42859;BME280;28505;56.970;40.998;2022-10-30T07:16:17;97580.13;;;8.69;nan
42859;BME280;28505;56.970;40.998;2022-10-30T07:21:42;97626.22;;;8.22;nan
42859;BME280;28505;56.970;40.998;2022-10-30T07:27:04;97635.06;;;7.44;nan
42859;BME280;28505;56.970;40.998;2022-10-30T07:38:56;97653.25;;;6.37;nan
42859;BME280;28505;56.970;40.998;2022-10-30T07:44:32;97635.22;;;6.17;nan
42859;BME280;28505;56.970;40.998;2022-10-30T07:50:06;97638.63;;;6.35;nan
42859;BME280;28505;56.970;40.998;2022-10-30T07:55:29;97645.69;;;6.39;nan
42859;BME280;28505;56.970;40.998;2022-10-30T08:01:27;97637.50;;;6.44;nan
42859;BME280;28505;56.970;40.998;2022-10-30T08:07:02;97635.59;;;6.74;nan
42859;BME280;28505;56.970;40.998;2022-10-30T08:12:24;97633.00;;;6.57;nan
42859;BME280;28505;56.970;40.998;2022-10-30T08:17:48;97632.06;;;6.83;nan
42859;BME280;28505;56.970;40.998;2022-10-30T08:23:16;97639.56;;;6.89;nan
42859;BME280;28505;56.970;40.998;2022-10-30T08:28:40;97645.00;;;7.01;nan
42859;BME280;28505;56.970;40.998;2022-10-30T08:34:09;97668.34;;;7.22;nan
42859;BME280;28505;56.970;40.998;2022-10-30T08:39:37;97653.47;;;7.45;nan
42859;BME280;28505;56.970;40.998;2022-10-30T08:45:22;97647.31;;;7.66;nan
42859;BME280;28505;56.970;40.998;2022-10-30T08:50:59;97636.75;;;7.48;nan
42859;BME280;28505;56.970;40.998;2022-10-30T08:56:31;97631.00;;;7.38;nan
42859;BME280;28505;56.970;40.998;2022-10-30T09:02:01;97643.50;;;7.34;nan
42859;BME280;28505;56.970;40.998;2022-10-30T09:07:42;97631.16;;;7.20;nan
42859;BME280;28505;56.970;40.998;2022-10-30T09:13:33;97641.16;;;7.11;nan
42859;BME280;28505;56.970;40.998;2022-10-30T09:18:57;97626.59;;;7.21;nan
42859;BME280;28505;56.970;40.998;2022-10-30T09:24:19;97629.69;;;7.44;nan
42859;BME280;28505;56.970;40.998;2022-10-30T09:29:41;97614.28;;;7.41;nan
42859;BME280;28505;56.970;40.998;2022-10-30T09:35:16;97607.00;;;7.41;nan
42859;BME280;28505;56.970;40.998;2022-10-30T09:47:14;97600.25;;;7.56;nan
42859;BME280;28505;56.970;40.998;2022-10-30T09:58:59;97588.00;;;7.34;nan
42859;BME280;28505;56.970;40.998;2022-10-30T10:04:29;97598.22;;;7.20;nan
42859;BME280;28505;56.970;40.998;2022-10-30T10:10:19;97586.31;;;7.09;nan
42859;BME280;28505;56.970;40.998;2022-10-30T10:15:54;97577.44;;;6.96;nan
42859;BME280;28505;56.970;40.998;2022-10-30T10:21:26;97600.38;;;7.06;nan
42859;BME280;28505;56.970;40.998;2022-10-30T10:26:51;97621.50;;;7.07;nan
42859;BME280;28505;56.970;40.998;2022-10-30T10:43:41;97594.44;;;6.79;nan
42859;BME280;28505;56.970;40.998;2022-10-30T10:54:55;97571.19;;;6.71;nan
42859;BME280;28505;56.970;40.998;2022-10-30T11:00:21;97576.41;;;6.67;nan
42859;BME280;28505;56.970;40.998;2022-10-30T11:05:58;97570.25;;;6.46;nan
42859;BME280;28505;56.970;40.998;2022-10-30T11:11:26;97590.78;;;6.33;nan
42859;BME280;28505;56.970;40.998;2022-10-30T11:17:01;97569.56;;;5.90;nan
42859;BME280;28505;56.970;40.998;2022-10-30T11:22:32;97586.53;;;5.94;nan
42859;BME280;28505;56.970;40.998;2022-10-30T11:28:25;97588.28;;;5.81;nan
42859;BME280;28505;56.970;40.998;2022-10-30T11:34:23;97578.72;;;5.71;nan
42859;BME280;28505;56.970;40.998;2022-10-30T11:39:41;97590.19;;;5.72;nan
42859;BME280;28505;56.970;40.998;2022-10-30T11:45:04;97605.78;;;5.70;nan
42859;BME280;28505;56.970;40.998;2022-10-30T12:02:27;97639.66;;;5.13;100.00
42859;BME280;28505;56.970;40.998;2022-10-30T12:07:51;97614.47;;;4.80;100.00
42859;BME280;28505;56.970;40.998;2022-10-30T12:13:16;97610.56;;;4.86;100.00
42859;BME280;28505;56.970;40.998;2022-10-30T12:19:01;97595.47;;;4.81;100.00
42859;BME280;28505;56.970;40.998;2022-10-30T12:24:36;97597.81;;;4.83;100.00
42859;BME280;28505;56.970;40.998;2022-10-30T12:30:16;97592.50;;;4.83;100.00
42859;BME280;28505;56.970;40.998;2022-10-30T12:35:50;97609.75;;;4.77;100.00
42859;BME280;28505;56.970;40.998;2022-10-30T12:47:03;97620.41;;;4.59;100.00
42859;BME280;28505;56.970;40.998;2022-10-30T12:52:43;97607.66;;;4.47;100.00
42859;BME280;28505;56.970;40.998;2022-10-30T13:12:07;97617.22;;;4.40;100.00
42859;BME280;28505;56.970;40.998;2022-10-30T13:17:33;97612.94;;;4.30;100.00
42859;BME280;28505;56.970;40.998;2022-10-30T13:23:13;97616.69;;;4.20;100.00
42859;BME280;28505;56.970;40.998;2022-10-30T13:34:36;97628.03;;;3.95;100.00
42859;BME280;28505;56.970;40.998;2022-10-30T13:52:17;97640.50;;;3.55;100.00
42859;BME280;28505;56.970;40.998;2022-10-30T14:10:56;97664.31;;;3.51;100.00
42859;BME280;28505;56.970;40.998;2022-10-30T14:16:34;97670.34;;;3.43;100.00
42859;BME280;28505;56.970;40.998;2022-10-30T14:23:37;97682.75;;;3.25;100.00
42859;BME280;28505;56.970;40.998;2022-10-30T14:40:45;97728.16;;;1.91;100.00
42859;BME280;28505;56.970;40.998;2022-10-30T14:46:46;97734.66;;;1.98;100.00
42859;BME280;28505;56.970;40.998;2022-10-30T14:58:15;97714.75;;;1.82;100.00
42859;BME280;28505;56.970;40.998;2022-10-30T15:15:11;97739.19;;;1.98;100.00
42859;BME280;28505;56.970;40.998;2022-10-30T15:20:38;97738.03;;;2.04;100.00
42859;BME280;28505;56.970;40.998;2022-10-30T15:26:04;97742.78;;;2.07;100.00
42859;BME280;28505;56.970;40.998;2022-10-30T15:31:30;97745.91;;;2.09;100.00
42859;BME280;28505;56.970;40.998;2022-10-30T15:36:54;97757.13;;;2.06;100.00
42859;BME280;28505;56.970;40.998;2022-10-30T15:42:16;97745.09;;;1.95;100.00
42859;BME280;28505;56.970;40.998;2022-10-30T15:47:44;97759.47;;;1.94;100.00
42859;BME280;28505;56.970;40.998;2022-10-30T15:53:52;97737.38;;;1.79;100.00
42859;BME280;28505;56.970;40.998;2022-10-30T16:06:05;97764.50;;;1.76;100.00
42859;BME280;28505;56.970;40.998;2022-10-30T16:11:28;97761.78;;;1.62;100.00
42859;BME280;28505;56.970;40.998;2022-10-30T16:16:51;97769.81;;;1.76;100.00
42859;BME280;28505;56.970;40.998;2022-10-30T16:22:36;97761.88;;;1.57;100.00
42859;BME280;28505;56.970;40.998;2022-10-30T16:27:58;97768.03;;;1.72;100.00
42859;BME280;28505;56.970;40.998;2022-10-30T16:33:24;97776.22;;;1.56;100.00
42859;BME280;28505;56.970;40.998;2022-10-30T16:38:48;97770.53;;;1.63;100.00
42859;BME280;28505;56.970;40.998;2022-10-30T16:49:34;97773.00;;;1.59;100.00
42859;BME280;28505;56.970;40.998;2022-10-30T16:55:04;97759.88;;;1.49;100.00
42859;BME280;28505;56.970;40.998;2022-10-30T17:00:27;97773.44;;;1.48;100.00
42859;BME280;28505;56.970;40.998;2022-10-30T17:05:58;97775.44;;;1.56;100.00
42859;BME280;28505;56.970;40.998;2022-10-30T17:11:34;97775.00;;;1.49;100.00
42859;BME280;28505;56.970;40.998;2022-10-30T17:16:57;97766.47;;;1.52;100.00
42859;BME280;28505;56.970;40.998;2022-10-30T17:22:23;97767.47;;;1.37;100.00
42859;BME280;28505;56.970;40.998;2022-10-30T17:27:47;97767.09;;;1.44;100.00
42859;BME280;28505;56.970;40.998;2022-10-30T17:33:33;97758.22;;;1.34;100.00
42859;BME280;28505;56.970;40.998;2022-10-30T17:38:58;97764.31;;;1.35;100.00
42859;BME280;28505;56.970;40.998;2022-10-30T17:44:21;64433.44;;;-144.28;100.00
42859;BME280;28505;56.970;40.998;2022-10-30T17:49:45;97766.63;;;1.42;nan
42859;BME280;28505;56.970;40.998;2022-10-30T17:55:24;97756.72;;;1.28;nan
42859;BME280;28505;56.970;40.998;2022-10-30T18:00:49;97758.81;;;1.31;nan
42859;BME280;28505;56.970;40.998;2022-10-30T18:06:16;97747.84;;;1.14;nan
42859;BME280;28505;56.970;40.998;2022-10-30T18:11:40;97745.50;;;1.12;nan
42859;BME280;28505;56.970;40.998;2022-10-30T18:17:02;97761.44;;;1.12;nan
42859;BME280;28505;56.970;40.998;2022-10-30T18:22:24;97756.56;;;1.20;nan
42859;BME280;28505;56.970;40.998;2022-10-30T18:27:47;97748.06;;;1.17;nan
42859;BME280;28505;56.970;40.998;2022-10-30T18:33:09;97755.19;;;1.22;nan
42859;BME280;28505;56.970;40.998;2022-10-30T18:38:31;97743.00;;;1.21;nan
42859;BME280;28505;56.970;40.998;2022-10-30T18:43:53;97761.38;;;1.36;nan
42859;BME280;28505;56.970;40.998;2022-10-30T18:49:15;97764.31;;;1.35;nan
42859;BME280;28505;56.970;40.998;2022-10-30T18:54:39;97760.88;;;1.34;nan
42859;BME280;28505;56.970;40.998;2022-10-30T19:00:01;97759.38;;;1.28;nan
42859;BME280;28505;56.970;40.998;2022-10-30T19:11:00;97764.59;;;1.33;nan
42859;BME280;28505;56.970;40.998;2022-10-30T19:16:22;97764.31;;;1.35;nan
42859;BME280;28505;56.970;40.998;2022-10-30T19:21:48;97770.63;;;1.39;nan
42859;BME280;28505;56.970;40.998;2022-10-30T19:27:11;97773.22;;;1.44;nan
42859;BME280;28505;56.970;40.998;2022-10-30T19:32:33;97765.53;;;1.43;nan
42859;BME280;28505;56.970;40.998;2022-10-30T19:37:56;97769.53;;;1.40;nan
42859;BME280;28505;56.970;40.998;2022-10-30T19:43:18;97760.38;;;1.32;nan
42859;BME280;28505;56.970;40.998;2022-10-30T19:48:40;97779.53;;;1.48;nan
42859;BME280;28505;56.970;40.998;2022-10-30T19:54:19;97761.78;;;1.44;nan
42859;BME280;28505;56.970;40.998;2022-10-30T19:59:41;97771.63;;;1.43;nan
42859;BME280;28505;56.970;40.998;2022-10-30T20:05:04;97755.84;;;1.33;nan
42859;BME280;28505;56.970;40.998;2022-10-30T20:10:28;97759.78;;;1.35;nan
42859;BME280;28505;56.970;40.998;2022-10-30T20:15:52;97758.94;;;1.40;nan
42859;BME280;28505;56.970;40.998;2022-10-30T20:21:35;97748.19;;;1.31;nan
42859;BME280;28505;56.970;40.998;2022-10-30T20:27:10;97734.09;;;1.12;nan
42859;BME280;28505;56.970;40.998;2022-10-30T20:32:38;97742.09;;;1.31;nan
42859;BME280;28505;56.970;40.998;2022-10-30T20:38:25;97726.78;;;1.04;nan
42859;BME280;28505;56.970;40.998;2022-10-30T20:43:51;97733.19;;;1.22;nan
42859;BME280;28505;56.970;40.998;2022-10-30T20:49:14;97725.06;;;1.13;nan
42859;BME280;28505;56.970;40.998;2022-10-30T20:54:41;97725.41;;;1.06;nan
42859;BME280;28505;56.970;40.998;2022-10-30T21:00:13;97740.94;;;1.18;nan
42859;BME280;28505;56.970;40.998;2022-10-30T21:05:39;97748.22;;;1.07;nan
42859;BME280;28505;56.970;40.998;2022-10-30T21:11:06;97728.72;;;0.98;nan
42859;BME280;28505;56.970;40.998;2022-10-30T21:16:31;97736.44;;;0.94;nan
42859;BME280;28505;56.970;40.998;2022-10-30T21:22:01;97737.94;;;1.01;nan
42859;BME280;28505;56.970;40.998;2022-10-30T21:27:28;97730.50;;;1.03;nan
42859;BME280;28505;56.970;40.998;2022-10-30T21:32:53;97733.69;;;1.05;nan
42859;BME280;28505;56.970;40.998;2022-10-30T21:38:15;97741.34;;;1.06;nan
42859;BME280;28505;56.970;40.998;2022-10-30T21:43:49;97743.84;;;1.16;nan
42859;BME280;28505;56.970;40.998;2022-10-30T21:49:20;97741.19;;;1.16;nan
42859;BME280;28505;56.970;40.998;2022-10-30T21:54:43;97744.16;;;1.15;nan
42859;BME280;28505;56.970;40.998;2022-10-30T22:00:06;97732.50;;;1.11;nan
42859;BME280;28505;56.970;40.998;2022-10-30T22:05:46;97731.16;;;1.13;nan
42859;BME280;28505;56.970;40.998;2022-10-30T22:11:10;97746.28;;;1.13;nan
42859;BME280;28505;56.970;40.998;2022-10-30T22:16:41;97734.25;;;1.02;nan
42859;BME280;28505;56.970;40.998;2022-10-30T22:22:13;97737.03;;;1.10;nan
42859;BME280;28505;56.970;40.998;2022-10-30T22:27:57;97750.97;;;1.21;nan
42859;BME280;28505;56.970;40.998;2022-10-30T22:33:28;97751.03;;;1.16;nan
42859;BME280;28505;56.970;40.998;2022-10-30T22:39:11;97758.84;;;1.26;nan
42859;BME280;28505;56.970;40.998;2022-10-30T22:44:33;97754.06;;;1.28;nan
42859;BME280;28505;56.970;40.998;2022-10-30T22:49:56;97749.50;;;1.10;nan
42859;BME280;28505;56.970;40.998;2022-10-30T22:55:20;97745.72;;;1.16;nan
42859;BME280;28505;56.970;40.998;2022-10-30T23:00:42;97722.81;;;1.01;nan
42859;BME280;28505;56.970;40.998;2022-10-30T23:06:07;97734.69;;;1.09;nan
42859;BME280;28505;56.970;40.998;2022-10-30T23:11:33;97741.50;;;1.15;nan
42859;BME280;28505;56.970;40.998;2022-10-30T23:16:56;97752.03;;;1.20;nan
42859;BME280;28505;56.970;40.998;2022-10-30T23:22:23;97739.97;;;1.09;nan
42859;BME280;28505;56.970;40.998;2022-10-30T23:27:45;97753.75;;;1.11;nan
42859;BME280;28505;56.970;40.998;2022-10-30T23:33:08;97751.50;;;0.99;nan
42859;BME280;28505;56.970;40.998;2022-10-30T23:38:36;97751.94;;;1.06;nan
42859;BME280;28505;56.970;40.998;2022-10-30T23:44:01;97726.16;;;0.88;nan
42859;BME280;28505;56.970;40.998;2022-10-30T23:49:24;97737.72;;;0.97;nan
42859;BME280;28505;56.970;40.998;2022-10-30T23:54:53;97725.91;;;0.89;nan
